Terminal Aerodrome Forecast
Issued by NWS

Home | Current Version | Previous Version | Text Only | Print | Product List | Glossary On
Versions: 1 2 3 4 5 6 7 8 9 10 11 12 13 14 15 16
000
FTUS43 KAPX 290527
TAFTVC
TAF
KTVC 290527Z 2906/3006 18005KT P6SM BKN250 WS010/21040KT
     FM291300 19012G21KT P6SM OVC120
     FM291900 19020G30KT 1/2SM SNRA SCT008 OVC015
     FM300000 25013G22KT 4SM -SNRA OVC025=

USA.gov is the U.S. government's official web portal to all federal, state and local government web resources and services.